createdAt,value
2019-01-27T00:03:03.963Z,5.20
2019-01-27T00:05:15.082Z,5.24
2019-01-27T00:07:25.997Z,5.25
2019-01-27T00:09:36.796Z,5.26
2019-01-27T00:11:47.653Z,5.26
2019-01-27T00:13:58.451Z,5.27
2019-01-27T00:16:09.456Z,5.28
2019-01-27T00:18:20.277Z,5.31
2019-01-27T00:20:31.182Z,5.27
2019-01-27T00:22:42.035Z,5.29
2019-01-27T00:24:52.830Z,5.31
2019-01-27T00:27:03.748Z,5.27
2019-01-27T00:29:14.570Z,5.27
2019-01-27T00:31:25.386Z,5.29
2019-01-27T00:33:36.230Z,5.28
2019-01-27T00:35:47.021Z,5.26
2019-01-27T00:37:57.809Z,5.32
2019-01-27T00:40:50.277Z,5.36
2019-01-27T00:43:01.077Z,5.41
2019-01-27T00:45:31.862Z,5.47
2019-01-27T00:47:42.716Z,5.45
2019-01-27T00:49:53.537Z,5.44
2019-01-27T00:52:45.996Z,5.45
2019-01-27T00:54:56.905Z,5.47
2019-01-27T00:57:07.809Z,5.51
2019-01-27T00:59:18.609Z,5.49
2019-01-27T01:01:29.439Z,5.47
2019-01-27T01:03:40.464Z,5.50
2019-01-27T01:05:51.256Z,5.44
2019-01-27T01:08:43.702Z,5.45
2019-01-27T01:10:54.518Z,5.47
2019-01-27T01:13:05.636Z,5.46
2019-01-27T01:15:58.104Z,5.44
2019-01-27T01:18:09.004Z,5.45
2019-01-27T01:21:01.477Z,5.45
2019-01-27T01:23:12.270Z,5.48
2019-01-27T01:26:04.749Z,5.44
2019-01-27T01:28:15.535Z,5.44
2019-01-27T01:33:11.620Z,5.45
2019-01-27T01:35:22.416Z,5.45
2019-01-27T01:37:33.239Z,5.48
2019-01-27T01:39:44.044Z,5.49
2019-01-27T01:41:54.872Z,5.47
2019-01-27T01:44:05.789Z,5.44
2019-01-27T01:46:16.707Z,5.47
2019-01-27T01:48:27.500Z,5.44
2019-01-27T01:50:38.327Z,5.44
2019-01-27T01:53:30.808Z,5.47
2019-01-27T01:55:41.612Z,5.44
2019-01-27T01:57:52.503Z,5.47
2019-01-27T02:00:44.936Z,5.51
2019-01-27T02:03:15.769Z,5.52
2019-01-27T02:08:21.007Z,5.45
2019-01-27T02:13:02.671Z,5.46
2019-01-27T02:15:55.103Z,5.44
2019-01-27T02:18:06.032Z,5.44
2019-01-27T02:20:16.844Z,5.40
2019-01-27T02:22:27.636Z,5.42
2019-01-27T02:24:38.443Z,5.46
2019-01-27T02:26:52.055Z,5.48
2019-01-27T02:29:02.995Z,5.46
2019-01-27T02:31:14.424Z,5.47
2019-01-27T02:33:25.230Z,5.46
2019-01-27T02:35:36.232Z,5.49
2019-01-27T02:37:47.047Z,5.48
2019-01-27T02:39:57.898Z,5.51
2019-01-27T02:42:08.654Z,5.49
2019-01-27T02:44:19.494Z,5.53
2019-01-27T02:46:30.286Z,5.53
2019-01-27T02:48:41.109Z,5.57
2019-01-27T02:50:51.897Z,5.62
2019-01-27T02:53:44.409Z,5.59
2019-01-27T02:55:55.245Z,5.59
2019-01-27T02:58:06.142Z,5.58
2019-01-27T03:06:08.800Z,5.62
2019-01-27T03:08:19.703Z,5.62
2019-01-27T03:10:30.507Z,5.56
2019-01-27T03:12:41.339Z,5.57
2019-01-27T03:14:52.155Z,5.55
2019-01-27T03:17:44.597Z,5.53
2019-01-27T03:19:55.423Z,5.55
2019-01-27T03:22:06.328Z,5.49
2019-01-27T03:24:17.172Z,5.41
2019-01-27T03:26:27.958Z,5.44
2019-01-27T03:28:38.765Z,5.45
2019-01-27T03:30:49.704Z,5.43
2019-01-27T03:33:00.529Z,5.43
2019-01-27T03:35:11.635Z,5.44
2019-01-27T03:37:22.422Z,5.49
2019-01-27T03:39:33.223Z,5.48
2019-01-27T03:41:44.042Z,5.49
2019-01-27T03:43:54.829Z,5.47
2019-01-27T03:46:05.666Z,5.42
2019-01-27T03:48:16.556Z,5.43
2019-01-27T03:50:27.454Z,5.41
2019-01-27T03:52:38.251Z,5.39
2019-01-27T03:54:49.041Z,5.39
2019-01-27T03:56:59.862Z,5.38
2019-01-27T03:59:10.756Z,5.41
2019-01-27T04:01:21.601Z,5.47
2019-01-27T04:03:32.414Z,5.53
2019-01-27T04:05:43.329Z,5.51
2019-01-27T04:07:54.173Z,5.57
2019-01-27T04:10:25.522Z,5.61
2019-01-27T04:12:36.362Z,5.60
2019-01-27T04:14:47.141Z,5.59
2019-01-27T04:16:57.995Z,5.56
2019-01-27T04:19:08.888Z,5.58
2019-01-27T04:21:19.840Z,5.59
2019-01-27T04:23:30.656Z,5.60
2019-01-27T04:28:13.845Z,5.58
2019-01-27T04:32:47.351Z,5.48
2019-01-27T04:34:58.157Z,5.49
2019-01-27T04:37:08.947Z,5.48
2019-01-27T04:39:19.744Z,5.48
2019-01-27T04:41:30.554Z,5.43
2019-01-27T04:43:41.381Z,5.43
2019-01-27T04:45:52.219Z,5.42
2019-01-27T04:48:24.805Z,5.42
2019-01-27T04:50:35.561Z,5.42
2019-01-27T04:52:46.456Z,5.37
2019-01-27T04:54:57.278Z,5.39
2019-01-27T04:57:08.074Z,5.40
2019-01-27T04:59:18.939Z,5.42
2019-01-27T05:01:29.731Z,5.46
2019-01-27T05:06:12.991Z,5.49
2019-01-27T05:08:23.787Z,5.52
2019-01-27T05:10:34.616Z,5.56
2019-01-27T05:12:45.426Z,5.63
2019-01-27T05:14:56.234Z,5.64
2019-01-27T05:17:07.125Z,5.72
2019-01-27T05:19:17.907Z,5.76
2019-01-27T05:21:28.759Z,5.75
2019-01-27T05:23:39.554Z,5.79
2019-01-27T05:25:50.399Z,5.85
2019-01-27T05:28:01.211Z,5.87
2019-01-27T05:30:53.662Z,5.89
2019-01-27T05:33:04.467Z,5.91
2019-01-27T05:35:15.277Z,5.91
2019-01-27T05:37:26.094Z,5.88
2019-01-27T05:39:36.886Z,5.87
2019-01-27T05:41:47.704Z,5.81
2019-01-27T05:43:58.511Z,5.73
2019-01-27T05:46:09.331Z,5.75
2019-01-27T05:48:20.151Z,5.74
2019-01-27T05:50:30.965Z,5.71
2019-01-27T05:55:20.500Z,5.66
2019-01-27T05:57:31.309Z,5.65
2019-01-27T05:59:42.110Z,5.66
2019-01-27T06:01:52.921Z,5.66
2019-01-27T06:04:03.812Z,5.64
2019-01-27T06:06:14.733Z,5.65
2019-01-27T06:08:25.618Z,5.64
2019-01-27T06:10:36.440Z,5.64
2019-01-27T06:12:47.268Z,5.63
2019-01-27T06:14:58.088Z,5.64
2019-01-27T06:17:09.005Z,5.64
2019-01-27T06:19:19.861Z,5.62
2019-01-27T06:21:30.654Z,5.58
2019-01-27T06:23:41.475Z,5.61
2019-01-27T06:25:52.268Z,5.61
2019-01-27T06:28:03.196Z,5.60
2019-01-27T06:30:33.870Z,5.61
2019-01-27T06:33:04.571Z,5.67
2019-01-27T06:35:15.368Z,5.69
2019-01-27T06:37:26.164Z,5.71
2019-01-27T06:39:36.985Z,5.75
2019-01-27T06:41:47.789Z,5.76
2019-01-27T06:43:58.601Z,5.76
2019-01-27T06:46:09.388Z,5.79
2019-01-27T06:48:20.210Z,5.83
2019-01-27T06:50:31.022Z,5.87
2019-01-27T06:52:41.812Z,5.85
2019-01-27T06:54:52.629Z,5.88
2019-01-27T06:57:03.434Z,5.93
2019-01-27T07:01:56.401Z,5.92
2019-01-27T07:04:27.119Z,5.95
2019-01-27T07:06:57.803Z,5.96
2019-01-27T07:09:28.508Z,5.95
2019-01-27T07:11:59.186Z,5.95
2019-01-27T07:16:48.457Z,5.95
2019-01-27T07:19:19.145Z,5.93
2019-01-27T07:33:34.402Z,5.95
2019-01-27T07:36:05.096Z,5.96
2019-01-27T07:38:35.864Z,5.97
2019-01-27T07:41:06.564Z,6.03
2019-01-27T07:43:37.245Z,6.00
2019-01-27T07:48:30.101Z,6.02
2019-01-27T07:55:55.426Z,6.12
2019-01-27T07:58:26.121Z,6.13
2019-01-27T08:00:56.806Z,6.16
2019-01-27T08:03:27.598Z,6.21
2019-01-27T08:08:30.766Z,6.23
2019-01-27T08:11:01.513Z,6.21
2019-01-27T08:13:32.224Z,6.23
2019-01-27T08:16:02.909Z,6.31
2019-01-27T08:23:14.656Z,6.40
2019-01-27T08:25:45.436Z,6.43
2019-01-27T08:30:56.813Z,6.56
2019-01-27T08:36:11.655Z,6.63
2019-01-27T08:38:42.662Z,6.70
2019-01-27T08:43:55.912Z,6.74
2019-01-27T08:46:26.597Z,6.74
2019-01-27T08:48:37.413Z,6.79
2019-01-27T08:50:48.313Z,6.84
2019-01-27T08:52:59.118Z,6.84
2019-01-27T08:55:51.596Z,6.82
2019-01-27T08:58:24.168Z,6.84
2019-01-27T09:00:35.211Z,6.97
2019-01-27T09:07:57.022Z,7.18
2019-01-27T09:13:26.268Z,7.43
2019-01-27T09:15:56.960Z,7.66
2019-01-27T09:18:27.648Z,7.76
2019-01-27T09:25:35.946Z,7.85
2019-01-27T09:30:39.136Z,8.06
2019-01-27T09:35:42.196Z,7.95
2019-01-27T09:40:53.265Z,7.74
2019-01-27T09:43:23.959Z,7.77
2019-01-27T09:46:05.226Z,7.75
2019-01-27T09:48:27.241Z,7.81
2019-01-27T09:50:57.931Z,7.83
2019-01-27T09:55:47.076Z,7.79
2019-01-27T10:00:40.581Z,8.00
2019-01-27T10:03:11.291Z,7.98
2019-01-27T10:08:14.348Z,7.97
2019-01-27T10:10:45.044Z,8.21
2019-01-27T10:15:34.736Z,8.55
2019-01-27T10:18:05.464Z,8.56
2019-01-27T10:20:36.140Z,8.47
2019-01-27T10:23:06.950Z,8.39
2019-01-27T10:28:10.033Z,8.49
2019-01-27T10:30:40.924Z,8.52
2019-01-27T10:33:11.647Z,8.47
2019-01-27T10:35:43.013Z,8.43
2019-01-27T10:38:13.874Z,8.46
2019-01-27T10:40:44.771Z,8.44
2019-01-27T10:43:15.525Z,8.50
2019-01-27T10:45:46.253Z,8.74
2019-01-27T10:50:49.367Z,8.65
2019-01-27T11:00:51.508Z,8.44
2019-01-27T11:05:54.883Z,8.39
2019-01-27T11:13:16.726Z,8.81
2019-01-27T11:15:47.461Z,8.92
2019-01-27T11:18:18.142Z,9.01
2019-01-27T11:23:07.505Z,9.14
2019-01-27T11:25:38.214Z,9.14
2019-01-27T11:30:49.734Z,9.20
2019-01-27T11:33:20.447Z,9.19
2019-01-27T11:35:51.332Z,9.17
2019-01-27T11:38:22.061Z,9.25
2019-01-27T11:40:52.803Z,9.29
2019-01-27T11:43:23.490Z,9.31
2019-01-27T11:45:54.188Z,9.19
2019-01-27T11:48:25.026Z,9.14
2019-01-27T11:50:35.928Z,9.08
2019-01-27T11:55:47.479Z,9.07
2019-01-27T11:57:58.310Z,9.17
2019-01-27T12:00:50.870Z,9.25
2019-01-27T12:03:01.703Z,9.26
2019-01-27T12:05:12.565Z,9.39
2019-01-27T12:07:23.384Z,9.45
2019-01-27T12:09:34.221Z,9.35
2019-01-27T12:11:45.022Z,9.24
2019-01-27T12:13:55.877Z,9.18
2019-01-27T12:16:06.753Z,9.16
2019-01-27T12:18:17.607Z,9.20
2019-01-27T12:20:28.410Z,9.20
2019-01-27T12:22:39.300Z,9.21
2019-01-27T12:24:50.225Z,9.20
2019-01-27T12:27:01.035Z,9.20
2019-01-27T12:29:11.864Z,9.25
2019-01-27T12:31:22.691Z,9.32
2019-01-27T12:33:33.497Z,9.39
2019-01-27T12:35:44.369Z,9.47
2019-01-27T12:37:55.285Z,9.57
2019-01-27T12:40:25.977Z,9.62
2019-01-27T12:42:36.794Z,9.65
2019-01-27T12:44:47.622Z,9.73
2019-01-27T12:46:58.590Z,9.81
2019-01-27T12:49:09.389Z,9.89
2019-01-27T12:51:20.263Z,10.05
2019-01-27T12:53:31.095Z,10.09
2019-01-27T12:55:41.903Z,10.15
2019-01-27T12:57:52.741Z,10.14
2019-01-27T13:00:45.228Z,10.19
2019-01-27T13:02:56.051Z,10.16
2019-01-27T13:05:10.308Z,10.06
2019-01-27T13:07:19.892Z,9.96
2019-01-27T13:09:30.680Z,9.80
2019-01-27T13:13:58.298Z,9.71
2019-01-27T13:16:09.145Z,9.76
2019-01-27T13:18:19.940Z,9.76
2019-01-27T13:21:12.714Z,9.74
2019-01-27T13:23:23.514Z,9.67
2019-01-27T13:25:34.332Z,9.63
2019-01-27T13:27:45.178Z,9.55
2019-01-27T13:30:37.634Z,9.54
2019-01-27T13:32:48.605Z,9.48
2019-01-27T13:34:59.420Z,9.45
2019-01-27T13:37:10.298Z,9.38
2019-01-27T13:39:21.151Z,9.43
2019-01-27T13:41:31.974Z,9.27
2019-01-27T13:43:42.904Z,9.23
2019-01-27T13:45:53.800Z,9.17
2019-01-27T13:48:04.648Z,9.09
2019-01-27T13:50:57.097Z,9.08
2019-01-27T13:53:08.017Z,9.07
2019-01-27T13:56:00.465Z,9.02
2019-01-27T13:58:11.494Z,9.00
2019-01-27T14:01:03.958Z,8.91
2019-01-27T14:03:14.852Z,8.88
2019-01-27T14:05:25.905Z,8.91
2019-01-27T14:07:36.845Z,8.95
2019-01-27T14:09:47.694Z,8.92
2019-01-27T14:11:58.522Z,8.97
2019-01-27T14:14:09.484Z,8.95
2019-01-27T14:16:20.315Z,8.95
2019-01-27T14:18:31.158Z,8.97
2019-01-27T14:20:42.004Z,8.98
2019-01-27T14:22:52.895Z,9.00
2019-01-27T14:25:45.369Z,9.02
2019-01-27T14:28:37.858Z,9.06
2019-01-27T14:30:48.800Z,9.20
2019-01-27T14:32:59.700Z,9.30
2019-01-27T14:35:52.223Z,9.28
2019-01-27T14:38:03.138Z,9.33
2019-01-27T14:40:55.709Z,9.32
2019-01-27T14:43:06.513Z,9.34
2019-01-27T14:45:59.070Z,9.31
2019-01-27T14:48:09.895Z,9.22
2019-01-27T14:50:41.988Z,9.23
2019-01-27T14:52:52.829Z,9.24
2019-01-27T14:55:45.307Z,9.14
2019-01-27T14:57:56.133Z,10.11
2019-01-27T15:00:46.701Z,10.35
2019-01-27T15:02:58.332Z,10.09
2019-01-27T15:05:51.886Z,9.78
2019-01-27T15:08:46.062Z,9.56
2019-01-27T15:10:57.174Z,9.43
2019-01-27T15:13:09.132Z,9.25
2019-01-27T15:15:36.737Z,9.12
2019-01-27T15:18:29.428Z,9.07
2019-01-27T15:21:00.081Z,9.02
2019-01-27T15:23:11.049Z,8.98
2019-01-27T15:25:21.831Z,8.97
2019-01-27T15:27:32.812Z,8.95
2019-01-27T15:29:43.635Z,8.95
2019-01-27T15:31:54.653Z,8.94
2019-01-27T15:34:05.463Z,8.93
2019-01-27T15:36:16.303Z,8.87
2019-01-27T15:38:27.110Z,8.92
2019-01-27T15:40:38.017Z,8.83
2019-01-27T15:42:49.027Z,8.78
2019-01-27T15:44:59.844Z,8.79
2019-01-27T15:49:28.080Z,8.77
2019-01-27T15:51:38.919Z,8.77
2019-01-27T15:53:49.742Z,8.74
2019-01-27T15:56:00.614Z,8.71
2019-01-27T15:58:11.621Z,8.69
2019-01-27T16:01:04.061Z,8.69
2019-01-27T16:03:15.017Z,8.70
2019-01-27T16:06:07.498Z,8.65
2019-01-27T16:08:18.412Z,8.63
2019-01-27T16:10:29.222Z,8.61
2019-01-27T16:14:57.819Z,8.65
2019-01-27T16:19:25.733Z,8.58
2019-01-27T16:21:36.540Z,8.61
2019-01-27T16:28:23.380Z,8.51
2019-01-27T16:30:54.261Z,8.55
2019-01-27T16:35:37.574Z,8.47
2019-01-27T16:37:48.374Z,8.45
2019-01-27T16:39:59.213Z,8.45
2019-01-27T16:42:10.142Z,8.44
2019-01-27T16:44:21.001Z,8.38
2019-01-27T16:46:31.944Z,8.35
2019-01-27T16:48:42.865Z,8.33
2019-01-27T16:50:53.876Z,8.28
2019-01-27T16:53:04.787Z,8.25
2019-01-27T16:55:35.588Z,8.29
2019-01-27T16:58:28.064Z,8.26
2019-01-27T17:00:39.170Z,8.20
2019-01-27T17:02:49.998Z,8.15
2019-01-27T17:05:00.918Z,8.09
2019-01-27T17:07:11.722Z,8.04
2019-01-27T17:09:22.570Z,7.99
2019-01-27T17:11:33.582Z,7.99
2019-01-27T17:13:44.611Z,7.91
2019-01-27T17:15:55.489Z,7.87
2019-01-27T17:18:06.311Z,7.84
2019-01-27T17:20:58.825Z,7.76
2019-01-27T17:23:09.619Z,7.75
2019-01-27T17:25:20.441Z,7.64
2019-01-27T17:27:31.367Z,7.60
2019-01-27T17:29:42.187Z,7.58
2019-01-27T17:31:53.065Z,7.51
2019-01-27T17:34:04.064Z,7.52
2019-01-27T17:36:14.984Z,7.50
2019-01-27T17:38:25.906Z,7.47
2019-01-27T17:40:37.029Z,7.48
2019-01-27T17:42:48.068Z,7.46
2019-01-27T17:44:58.895Z,7.41
2019-01-27T17:47:09.807Z,7.37
2019-01-27T17:49:20.623Z,7.33
2019-01-27T17:56:07.623Z,7.25
2019-01-27T17:59:00.148Z,7.23
2019-01-27T18:06:12.136Z,7.19
2019-01-27T18:15:35.200Z,7.04
2019-01-27T18:17:46.154Z,7.03
2019-01-27T18:19:56.997Z,6.94
2019-01-27T18:22:07.913Z,6.91
2019-01-27T18:24:18.809Z,6.85
2019-01-27T18:26:29.678Z,6.93
2019-01-27T18:28:40.528Z,6.90
2019-01-27T18:30:51.326Z,6.85
2019-01-27T18:33:02.442Z,6.83
2019-01-27T18:35:13.560Z,6.82
2019-01-27T18:37:24.498Z,6.77
2019-01-27T18:39:35.324Z,6.75
2019-01-27T18:41:46.195Z,6.78
2019-01-27T18:43:57.170Z,6.80
2019-01-27T18:48:46.478Z,6.76
2019-01-27T18:50:57.409Z,6.73
2019-01-27T18:53:28.124Z,6.71
2019-01-27T18:55:58.812Z,6.71
2019-01-27T18:58:29.613Z,6.72
2019-01-27T19:01:00.353Z,6.70
2019-01-27T19:03:31.114Z,6.61
2019-01-27T19:08:25.213Z,6.60
2019-01-27T19:10:56.028Z,6.59
2019-01-27T19:18:37.429Z,6.59
2019-01-27T19:21:08.234Z,6.60
2019-01-27T19:23:38.932Z,6.50
2019-01-27T19:26:09.650Z,6.51
2019-01-27T19:28:40.327Z,6.50
2019-01-27T19:31:11.222Z,6.45
2019-01-27T19:33:41.929Z,6.44
2019-01-27T19:36:12.684Z,6.39
2019-01-27T19:38:43.360Z,6.37
2019-01-27T19:41:14.201Z,6.37
2019-01-27T19:43:44.873Z,6.37
2019-01-27T19:51:10.967Z,6.36
2019-01-27T20:03:03.843Z,6.26
2019-01-27T20:05:34.624Z,6.30
2019-01-27T20:08:06.208Z,6.30
2019-01-27T20:10:37.031Z,6.30
2019-01-27T20:13:16.694Z,6.30
2019-01-27T20:15:47.592Z,6.27
2019-01-27T20:18:18.282Z,6.14
2019-01-27T20:20:49.011Z,6.16
2019-01-27T20:23:19.843Z,6.13
2019-01-27T20:25:51.771Z,6.10
2019-01-27T20:33:03.923Z,5.96
2019-01-27T20:35:35.169Z,5.97
2019-01-27T20:38:05.868Z,5.89
2019-01-27T20:42:58.913Z,5.54
2019-01-27T20:45:51.605Z,5.46
2019-01-27T20:48:22.403Z,5.37
2019-01-27T20:50:53.137Z,5.36
2019-01-27T20:55:56.255Z,5.28
2019-01-27T21:03:18.121Z,4.99
2019-01-27T21:05:48.818Z,5.01
2019-01-27T21:10:42.422Z,4.86
2019-01-27T21:13:13.199Z,4.86
2019-01-27T21:15:44.499Z,4.86
2019-01-27T21:22:30.897Z,4.77
2019-01-27T21:24:41.821Z,4.84
2019-01-27T21:26:52.631Z,4.75
2019-01-27T21:29:03.693Z,4.69
2019-01-27T21:31:14.553Z,4.54
2019-01-27T21:33:25.457Z,4.48
2019-01-27T21:35:36.261Z,4.47
2019-01-27T21:37:47.170Z,4.36
2019-01-27T21:39:58.082Z,4.33
2019-01-27T21:42:08.899Z,4.08
2019-01-27T21:46:38.465Z,4.02
2019-01-27T21:48:49.315Z,3.97
2019-01-27T21:51:00.158Z,3.92
2019-01-27T21:55:27.950Z,3.89
2019-01-27T21:57:38.769Z,3.90
2019-01-27T21:59:49.584Z,3.84
2019-01-27T22:02:00.402Z,3.85
2019-01-27T22:04:11.375Z,3.76
2019-01-27T22:06:22.279Z,3.66
2019-01-27T22:08:33.118Z,3.60
2019-01-27T22:10:43.909Z,3.53
2019-01-27T22:12:54.785Z,3.51
2019-01-27T22:15:22.094Z,3.42
2019-01-27T22:17:32.925Z,3.46
2019-01-27T22:20:25.415Z,3.45
2019-01-27T22:22:36.234Z,3.46
2019-01-27T22:25:28.740Z,3.35
2019-01-27T22:27:39.546Z,3.35
2019-01-27T22:29:50.398Z,3.30
2019-01-27T22:32:01.230Z,3.26
2019-01-27T22:34:12.142Z,3.31
2019-01-27T22:36:22.947Z,3.25
2019-01-27T22:38:33.782Z,3.23
2019-01-27T22:40:44.602Z,3.23
2019-01-27T22:42:55.508Z,3.17
2019-01-27T22:45:26.203Z,3.14
2019-01-27T22:47:37.236Z,3.12
2019-01-27T22:49:48.044Z,3.08
2019-01-27T22:51:58.879Z,3.11
2019-01-27T22:54:10.028Z,3.15
2019-01-27T22:56:22.573Z,3.21
2019-01-27T22:58:33.400Z,3.19
2019-01-27T23:01:25.871Z,3.23
2019-01-27T23:03:36.890Z,3.16
2019-01-27T23:05:47.704Z,3.18
2019-01-27T23:10:15.717Z,3.12
2019-01-27T23:12:26.563Z,3.12
2019-01-27T23:14:37.406Z,3.13
2019-01-27T23:16:48.278Z,3.16
2019-01-27T23:18:59.083Z,3.25
2019-01-27T23:21:09.880Z,3.21
2019-01-27T23:23:20.737Z,3.11
2019-01-27T23:25:31.563Z,3.18
2019-01-27T23:27:42.385Z,3.19
2019-01-27T23:29:53.192Z,3.30
2019-01-27T23:32:04.395Z,3.28
2019-01-27T23:34:15.194Z,3.28
2019-01-27T23:39:46.933Z,3.26
2019-01-27T23:41:57.785Z,3.28
2019-01-27T23:44:08.655Z,3.31
2019-01-27T23:46:19.438Z,3.31
2019-01-27T23:48:30.273Z,3.31
2019-01-27T23:50:41.118Z,3.38
2019-01-27T23:52:51.922Z,3.37
2019-01-27T23:55:44.390Z,3.42
2019-01-27T23:57:55.208Z,3.46
